createdAt,value
2022-09-09T00:00:43.389Z,44.13
2022-09-09T00:03:14.246Z,44.43
2022-09-09T00:05:45.221Z,44.26
2022-09-09T00:08:16.520Z,43.96
2022-09-09T00:10:44.290Z,44.54
2022-09-09T00:13:18.206Z,44.41
2022-09-09T00:15:50.505Z,44.21
2022-09-09T00:18:23.004Z,44.51
2022-09-09T00:20:55.923Z,44.06
2022-09-09T00:23:26.778Z,43.96
2022-09-09T00:26:00.475Z,44.07
2022-09-09T00:28:31.982Z,44.07
2022-09-09T00:31:02.717Z,44.55
2022-09-09T00:33:30.887Z,44.52
2022-09-09T00:36:00.132Z,43.87
2022-09-09T00:38:30.592Z,44.62
2022-09-09T00:41:01.207Z,44.50
2022-09-09T00:43:31.932Z,43.88
2022-09-09T00:46:24.230Z,44.63
2022-09-09T00:48:56.215Z,44.44
2022-09-09T00:51:31.250Z,44.42
2022-09-09T00:54:11.827Z,44.65
2022-09-09T00:56:43.175Z,44.35
2022-09-09T00:59:17.393Z,44.12
2022-09-09T01:01:45.485Z,44.02
2022-09-09T01:04:17.262Z,44.10
2022-09-09T01:06:46.573Z,43.90
2022-09-09T01:09:18.070Z,44.37
2022-09-09T01:11:52.626Z,44.13
2022-09-09T01:14:29.466Z,44.61
2022-09-09T01:16:57.393Z,44.34
2022-09-09T01:19:31.836Z,44.50
2022-09-09T01:22:03.815Z,44.64
2022-09-09T01:24:33.550Z,44.54
2022-09-09T01:27:03.028Z,44.69
2022-09-09T01:29:30.793Z,44.58
2022-09-09T01:31:59.660Z,44.24
2022-09-09T01:34:29.164Z,43.95
2022-09-09T01:36:59.838Z,44.45
2022-09-09T01:39:27.573Z,44.06
2022-09-09T01:41:55.594Z,44.41
2022-09-09T01:44:25.336Z,44.17
2022-09-09T01:46:53.095Z,44.15
2022-09-09T01:49:20.997Z,44.35
2022-09-09T01:51:50.115Z,44.40
2022-09-09T01:54:18.143Z,44.72
2022-09-09T01:56:49.686Z,44.51
2022-09-09T01:59:26.644Z,44.10
2022-09-09T02:02:00.805Z,44.59
2022-09-09T02:04:41.944Z,44.50
2022-09-09T02:07:22.160Z,44.48
2022-09-09T02:09:54.082Z,44.35
2022-09-09T02:12:21.799Z,44.12
2022-09-09T02:14:52.788Z,43.99
2022-09-09T02:17:21.418Z,43.99
2022-09-09T02:19:50.905Z,44.51
2022-09-09T02:22:18.778Z,44.07
2022-09-09T02:24:47.220Z,44.45
2022-09-09T02:27:15.573Z,44.35
2022-09-09T02:29:43.811Z,44.50
2022-09-09T02:32:14.148Z,43.96
2022-09-09T02:34:44.012Z,44.64
2022-09-09T02:37:11.845Z,44.29
2022-09-09T02:39:39.599Z,44.01
2022-09-09T02:42:08.156Z,44.39
2022-09-09T02:44:36.360Z,44.39
2022-09-09T02:47:18.460Z,43.97
2022-09-09T02:49:51.030Z,44.02
2022-09-09T02:52:20.824Z,43.97
2022-09-09T02:54:48.810Z,44.45
2022-09-09T02:57:18.183Z,44.29
2022-09-09T02:59:46.312Z,44.51
2022-09-09T03:02:14.122Z,44.43
2022-09-09T03:04:45.433Z,44.37
2022-09-09T03:07:13.223Z,44.48
2022-09-09T03:09:40.931Z,44.12
2022-09-09T03:12:08.714Z,44.01
2022-09-09T03:14:36.948Z,43.83
2022-09-09T03:17:04.804Z,44.40
2022-09-09T03:19:32.540Z,43.83
2022-09-09T03:22:01.707Z,43.83
2022-09-09T03:24:30.933Z,44.13
2022-09-09T03:26:58.697Z,44.32
2022-09-09T03:29:26.487Z,44.40
2022-09-09T03:31:54.276Z,44.04
2022-09-09T03:34:22.319Z,44.42
2022-09-09T03:36:50.994Z,44.19
2022-09-09T03:39:20.087Z,43.83
2022-09-09T03:41:49.312Z,44.39
2022-09-09T03:44:17.492Z,43.79
2022-09-09T03:46:45.249Z,44.49
2022-09-09T03:49:13.326Z,43.96
2022-09-09T03:51:41.441Z,43.94
2022-09-09T03:54:11.206Z,43.88
2022-09-09T03:56:42.373Z,43.89
2022-09-09T03:59:10.674Z,44.03
2022-09-09T04:01:38.377Z,44.06
2022-09-09T04:04:06.405Z,44.48
2022-09-09T04:06:34.121Z,43.74
2022-09-09T04:09:03.411Z,44.06
2022-09-09T04:11:31.295Z,44.33
2022-09-09T04:14:00.847Z,44.38
2022-09-09T04:16:28.659Z,43.89
2022-09-09T04:18:57.066Z,43.78
2022-09-09T04:21:24.811Z,43.61
2022-09-09T04:23:53.342Z,44.35
2022-09-09T04:26:21.160Z,43.88
2022-09-09T04:28:48.944Z,44.18
2022-09-09T04:31:21.084Z,44.23
2022-09-09T04:33:49.268Z,43.85
2022-09-09T04:36:17.001Z,43.96
2022-09-09T04:38:45.462Z,44.25
2022-09-09T04:41:13.278Z,43.78
2022-09-09T04:43:41.324Z,44.34
2022-09-09T04:46:09.101Z,44.40
2022-09-09T04:48:38.335Z,43.67
2022-09-09T04:51:07.506Z,44.12
2022-09-09T04:53:36.129Z,44.14
2022-09-09T04:56:05.381Z,43.69
2022-09-09T04:58:33.200Z,44.13
2022-09-09T05:01:08.376Z,44.27
2022-09-09T05:03:38.483Z,44.39
2022-09-09T05:06:09.184Z,43.81
2022-09-09T05:08:37.943Z,44.17
2022-09-09T05:11:06.139Z,43.63
2022-09-09T05:13:36.366Z,44.22
2022-09-09T05:16:06.615Z,44.09
2022-09-09T05:18:34.429Z,44.18
2022-09-09T05:21:03.557Z,44.32
2022-09-09T05:23:31.989Z,44.35
2022-09-09T05:25:59.833Z,44.24
2022-09-09T05:28:27.821Z,44.11
2022-09-09T05:31:00.171Z,43.84
2022-09-09T05:33:29.330Z,44.47
2022-09-09T05:36:00.317Z,43.67
2022-09-09T05:38:29.958Z,43.84
2022-09-09T05:40:58.100Z,44.09
2022-09-09T05:43:26.325Z,43.63
2022-09-09T05:46:02.101Z,44.16
2022-09-09T05:48:30.928Z,44.26
2022-09-09T05:50:58.681Z,44.29
2022-09-09T05:53:26.754Z,43.61
2022-09-09T05:56:04.364Z,44.40
2022-09-09T05:58:32.546Z,43.76
2022-09-09T06:01:04.876Z,43.71
2022-09-09T06:03:32.913Z,43.64
2022-09-09T06:06:01.540Z,43.67
2022-09-09T06:08:29.513Z,44.02
2022-09-09T06:11:04.933Z,43.67
2022-09-09T06:13:32.865Z,43.85
2022-09-09T06:16:00.771Z,43.64
2022-09-09T06:18:28.697Z,44.30
2022-09-09T06:20:57.844Z,44.08
2022-09-09T06:23:26.438Z,43.76
2022-09-09T06:25:54.276Z,43.72
2022-09-09T06:28:23.402Z,44.03
2022-09-09T06:30:51.127Z,44.02
2022-09-09T06:33:19.110Z,43.62
2022-09-09T06:35:54.084Z,43.88
2022-09-09T06:38:23.238Z,44.13
2022-09-09T06:40:54.104Z,44.18
2022-09-09T06:43:23.694Z,43.59
2022-09-09T06:45:58.338Z,44.15
2022-09-09T06:48:26.882Z,44.29
2022-09-09T06:51:02.951Z,43.70
2022-09-09T06:53:30.815Z,43.74
2022-09-09T06:55:58.691Z,44.21
2022-09-09T06:58:27.786Z,43.62
2022-09-09T07:00:56.655Z,43.75
2022-09-09T07:03:24.678Z,43.69
2022-09-09T07:05:58.628Z,44.23
2022-09-09T07:08:27.565Z,44.26
2022-09-09T07:10:55.809Z,43.62
2022-09-09T07:13:28.129Z,43.64
2022-09-09T07:15:55.960Z,43.49
2022-09-09T07:18:23.741Z,43.68
2022-09-09T07:20:55.421Z,43.68
2022-09-09T07:23:23.225Z,43.88
2022-09-09T07:25:51.209Z,44.12
2022-09-09T07:28:18.987Z,44.22
2022-09-09T07:30:55.307Z,44.01
2022-09-09T07:33:23.062Z,43.56
2022-09-09T07:35:50.859Z,43.64
2022-09-09T07:38:18.716Z,43.53
2022-09-09T07:40:46.519Z,43.64
2022-09-09T07:43:17.351Z,43.79
2022-09-09T07:45:45.246Z,43.99
2022-09-09T07:48:14.365Z,43.64
2022-09-09T07:50:42.105Z,43.70
2022-09-09T07:53:10.135Z,43.55
2022-09-09T07:55:38.041Z,43.70
2022-09-09T07:58:05.773Z,43.64
2022-09-09T08:00:34.221Z,43.73
2022-09-09T08:03:03.050Z,44.05
2022-09-09T08:05:32.164Z,43.54
2022-09-09T08:07:59.910Z,44.29
2022-09-09T08:10:27.713Z,44.07
2022-09-09T08:13:16.932Z,43.48
2022-09-09T08:15:44.473Z,44.26
2022-09-09T08:18:12.251Z,43.57
2022-09-09T08:20:41.383Z,43.60
2022-09-09T08:23:09.098Z,43.96
2022-09-09T08:25:36.831Z,43.88
2022-09-09T08:28:04.659Z,43.86
2022-09-09T08:30:32.395Z,43.63
2022-09-09T08:33:00.996Z,44.14
2022-09-09T08:35:33.648Z,44.07
2022-09-09T08:38:04.638Z,43.53
2022-09-09T08:40:35.228Z,44.10
2022-09-09T08:43:03.906Z,43.93
2022-09-09T08:45:35.866Z,43.70
2022-09-09T08:48:16.154Z,43.64
2022-09-09T08:50:44.347Z,43.54
2022-09-09T08:53:17.963Z,43.52
2022-09-09T08:55:49.500Z,43.74
2022-09-09T08:58:18.327Z,43.57
2022-09-09T09:01:10.630Z,43.54
2022-09-09T09:03:43.615Z,43.45
2022-09-09T09:06:20.674Z,43.60
2022-09-09T09:08:52.510Z,43.47
2022-09-09T09:11:20.247Z,44.02
2022-09-09T09:13:49.284Z,44.15
2022-09-09T09:16:21.745Z,43.59
2022-09-09T09:18:49.528Z,43.63
2022-09-09T09:21:19.720Z,43.96
2022-09-09T09:23:52.062Z,43.49
2022-09-09T09:26:19.999Z,43.97
2022-09-09T09:28:48.082Z,43.56
2022-09-09T09:31:15.939Z,44.13
2022-09-09T09:33:48.798Z,43.69
2022-09-09T09:36:17.411Z,43.58
2022-09-09T09:41:44.837Z,44.06
2022-09-09T09:44:24.782Z,43.45
2022-09-09T09:46:52.580Z,43.50
2022-09-09T09:49:20.308Z,43.82
2022-09-09T09:51:48.063Z,43.60
2022-09-09T09:54:28.559Z,44.15
2022-09-09T09:56:56.274Z,43.43
2022-09-09T09:59:41.286Z,44.14
2022-09-09T10:02:20.212Z,44.10
2022-09-09T10:04:48.432Z,43.82
2022-09-09T10:07:20.067Z,43.76
2022-09-09T10:09:50.084Z,43.78
2022-09-09T10:12:23.354Z,43.95
2022-09-09T10:14:54.472Z,43.62
2022-09-09T10:17:27.205Z,43.85
2022-09-09T10:20:01.549Z,43.42
2022-09-09T10:22:29.902Z,43.99
2022-09-09T10:25:10.668Z,43.93
2022-09-09T10:27:42.152Z,43.43
2022-09-09T10:30:14.195Z,43.82
2022-09-09T10:32:43.954Z,44.02
2022-09-09T10:35:14.596Z,43.35
2022-09-09T10:37:56.642Z,43.83
2022-09-09T10:40:31.508Z,43.55
2022-09-09T10:43:03.502Z,43.50
2022-09-09T10:45:34.844Z,43.98
2022-09-09T10:48:19.004Z,43.41
2022-09-09T10:51:01.296Z,43.47
2022-09-09T10:53:38.614Z,43.45
2022-09-09T10:56:09.448Z,43.98
2022-09-09T10:58:40.416Z,43.24
2022-09-09T11:01:12.126Z,43.57
2022-09-09T11:03:40.327Z,43.48
2022-09-09T11:06:09.427Z,44.03
2022-09-09T11:08:37.804Z,43.91
2022-09-09T11:11:06.678Z,43.35
2022-09-09T11:13:37.320Z,44.00
2022-09-09T11:16:07.972Z,43.52
2022-09-09T11:18:36.312Z,43.57
2022-09-09T11:21:04.424Z,43.96
2022-09-09T11:23:40.014Z,43.80
2022-09-09T11:26:09.668Z,43.97
2022-09-09T11:28:45.644Z,43.56
2022-09-09T11:31:24.275Z,43.88
2022-09-09T11:34:04.377Z,43.89
2022-09-09T11:36:58.385Z,43.51
2022-09-09T11:39:47.386Z,43.40
2022-09-09T11:42:19.324Z,44.06
2022-09-09T11:44:48.750Z,43.61
2022-09-09T11:47:23.877Z,43.93
2022-09-09T11:49:51.653Z,43.40
2022-09-09T11:52:24.041Z,43.25
2022-09-09T11:54:52.273Z,43.82
2022-09-09T11:57:27.047Z,43.30
2022-09-09T11:59:56.217Z,43.27
2022-09-09T12:02:25.545Z,43.93
2022-09-09T12:04:59.078Z,43.51
2022-09-09T12:07:37.119Z,43.90
2022-09-09T12:10:08.011Z,43.46
2022-09-09T12:12:39.150Z,43.48
2022-09-09T12:15:23.116Z,43.45
2022-09-09T12:17:52.518Z,43.41
2022-09-09T12:20:21.440Z,43.93
2022-09-09T12:22:55.710Z,43.78
2022-09-09T12:25:27.675Z,43.58
2022-09-09T12:28:03.946Z,43.68
2022-09-09T12:30:35.218Z,43.79
2022-09-09T12:33:04.081Z,43.46
2022-09-09T12:35:32.089Z,43.63
2022-09-09T12:38:00.980Z,43.44
2022-09-09T12:40:29.465Z,43.42
2022-09-09T12:42:57.633Z,43.69
2022-09-09T12:45:26.936Z,43.77
2022-09-09T12:47:57.599Z,43.83
2022-09-09T12:50:27.749Z,43.79
2022-09-09T12:52:56.472Z,43.44
2022-09-09T12:55:26.258Z,43.96
2022-09-09T12:57:54.039Z,43.30
2022-09-09T13:00:23.608Z,43.81
2022-09-09T13:02:53.268Z,43.92
2022-09-09T13:05:24.028Z,43.54
2022-09-09T13:07:51.739Z,43.57
2022-09-09T13:10:36.280Z,43.34
2022-09-09T13:13:06.122Z,43.81
2022-09-09T13:15:34.077Z,43.55
2022-09-09T13:18:03.242Z,43.56
2022-09-09T13:20:32.336Z,43.31
2022-09-09T13:23:00.371Z,43.83
2022-09-09T13:25:29.747Z,43.42
2022-09-09T13:27:59.551Z,43.46
2022-09-09T13:30:29.686Z,43.63
2022-09-09T13:33:08.810Z,43.57
2022-09-09T13:35:38.098Z,43.71
2022-09-09T13:38:10.453Z,43.85
2022-09-09T13:40:38.196Z,43.78
2022-09-09T13:43:12.803Z,43.39
2022-09-09T13:45:40.614Z,43.96
2022-09-09T13:48:12.036Z,43.75
2022-09-09T13:50:42.554Z,43.66
2022-09-09T13:53:10.588Z,43.89
2022-09-09T13:55:39.189Z,43.52
2022-09-09T13:58:07.111Z,43.89
2022-09-09T14:00:35.632Z,43.82
2022-09-09T14:03:03.695Z,43.46
2022-09-09T14:05:32.255Z,43.41
2022-09-09T14:08:01.635Z,43.94
2022-09-09T14:10:29.394Z,43.55
2022-09-09T14:12:57.494Z,44.00
2022-09-09T14:15:25.399Z,43.44
2022-09-09T14:17:53.249Z,43.50
2022-09-09T14:20:21.010Z,43.30
2022-09-09T14:22:48.746Z,43.89
2022-09-09T14:25:18.225Z,43.66
2022-09-09T14:27:46.958Z,43.33
2022-09-09T14:30:14.949Z,43.87
2022-09-09T14:32:42.679Z,43.41
2022-09-09T14:35:10.827Z,43.55
2022-09-09T14:37:40.120Z,43.90
2022-09-09T14:40:09.213Z,43.83
2022-09-09T14:42:38.510Z,43.40
2022-09-09T14:45:10.561Z,43.51
2022-09-09T14:47:39.079Z,43.88
2022-09-09T14:50:08.970Z,43.40
2022-09-09T14:52:36.762Z,43.19
2022-09-09T14:55:04.897Z,43.27
2022-09-09T14:57:33.200Z,44.06
2022-09-09T15:00:02.561Z,44.06
2022-09-09T15:02:30.985Z,44.02
2022-09-09T15:04:59.136Z,43.99
2022-09-09T15:07:27.611Z,43.85
2022-09-09T15:09:55.408Z,43.93
2022-09-09T15:12:23.208Z,43.59
2022-09-09T15:14:51.275Z,43.95
2022-09-09T15:17:21.501Z,43.87
2022-09-09T15:19:51.078Z,43.91
2022-09-09T15:22:18.782Z,43.97
2022-09-09T15:24:46.861Z,43.83
2022-09-09T15:27:15.522Z,43.32
2022-09-09T15:29:43.503Z,43.38
2022-09-09T15:32:11.389Z,43.99
2022-09-09T15:34:40.803Z,43.50
2022-09-09T15:37:08.759Z,43.50
2022-09-09T15:39:38.921Z,43.62
2022-09-09T15:42:08.009Z,43.43
2022-09-09T15:44:41.076Z,43.54
2022-09-09T15:47:08.981Z,43.89
2022-09-09T15:49:36.673Z,44.04
2022-09-09T15:52:05.895Z,44.12
2022-09-09T15:54:35.261Z,43.38
2022-09-09T15:57:05.065Z,43.41
2022-09-09T15:59:33.158Z,43.93
2022-09-09T16:02:01.133Z,43.45
2022-09-09T16:04:30.576Z,44.06
2022-09-09T16:07:00.042Z,43.85
2022-09-09T16:09:29.298Z,44.05
2022-09-09T16:11:59.886Z,43.50
2022-09-09T16:14:27.919Z,43.61
2022-09-09T16:16:57.966Z,44.01
2022-09-09T16:19:26.910Z,43.37
2022-09-09T16:21:54.635Z,43.99
2022-09-09T16:24:23.279Z,44.02
2022-09-09T16:26:53.256Z,43.90
2022-09-09T16:29:22.443Z,43.47
2022-09-09T16:31:50.382Z,43.83
2022-09-09T16:34:19.235Z,43.49
2022-09-09T16:36:47.002Z,43.89
2022-09-09T16:39:15.904Z,43.85
2022-09-09T16:41:44.835Z,43.37
2022-09-09T16:44:14.766Z,43.86
2022-09-09T16:46:43.718Z,43.38
2022-09-09T16:49:12.357Z,43.41
2022-09-09T16:51:40.750Z,43.95
2022-09-09T16:54:09.315Z,44.13
2022-09-09T16:56:38.914Z,43.42
2022-09-09T16:59:07.782Z,43.81
2022-09-09T17:01:38.411Z,43.48
2022-09-09T17:04:08.275Z,43.80
2022-09-09T17:06:37.693Z,44.07
2022-09-09T17:09:06.931Z,44.09
2022-09-09T17:11:34.937Z,44.13
2022-09-09T17:14:03.683Z,43.87
2022-09-09T17:16:35.089Z,44.17
2022-09-09T17:19:04.564Z,44.02
2022-09-09T17:21:32.720Z,43.52
2022-09-09T17:24:00.898Z,43.59
2022-09-09T17:26:30.296Z,44.14
2022-09-09T17:28:59.756Z,44.08
2022-09-09T17:31:28.829Z,43.41
2022-09-09T17:33:56.808Z,43.87
2022-09-09T17:36:27.754Z,43.58
2022-09-09T17:38:55.517Z,43.57
2022-09-09T17:41:24.192Z,43.54
2022-09-09T17:43:52.016Z,44.18
2022-09-09T17:46:20.930Z,43.76
2022-09-09T17:48:48.915Z,43.96
2022-09-09T17:51:19.826Z,43.45
2022-09-09T17:53:50.073Z,43.98
2022-09-09T17:56:20.976Z,43.79
2022-09-09T17:58:49.292Z,44.27
2022-09-09T18:01:17.802Z,44.04
2022-09-09T18:03:47.992Z,44.23
2022-09-09T18:06:18.553Z,43.86
2022-09-09T18:08:50.722Z,43.96
2022-09-09T18:11:18.837Z,44.23
2022-09-09T18:13:50.121Z,43.94
2022-09-09T18:16:18.693Z,44.35
2022-09-09T18:18:46.617Z,43.96
2022-09-09T18:21:14.606Z,44.39
2022-09-09T18:23:43.542Z,43.79
2022-09-09T18:26:14.561Z,43.82
2022-09-09T18:28:42.844Z,44.19
2022-09-09T18:31:10.957Z,44.46
2022-09-09T18:33:40.979Z,44.40
2022-09-09T18:36:09.282Z,44.05
2022-09-09T18:38:37.341Z,44.05
2022-09-09T18:41:16.059Z,44.62
2022-09-09T18:43:44.014Z,43.79
2022-09-09T18:46:12.775Z,44.56
2022-09-09T18:48:40.601Z,44.00
2022-09-09T18:51:09.096Z,44.12
2022-09-09T18:53:37.059Z,44.05
2022-09-09T18:56:05.720Z,44.46
2022-09-09T18:58:35.013Z,44.05
2022-09-09T19:01:03.025Z,44.10
2022-09-09T19:03:31.340Z,44.61
2022-09-09T19:06:02.414Z,43.96
2022-09-09T19:08:30.154Z,44.30
2022-09-09T19:10:58.078Z,44.87
2022-09-09T19:13:27.141Z,44.62
2022-09-09T19:15:56.531Z,44.65
2022-09-09T19:18:24.746Z,44.77
2022-09-09T19:20:52.501Z,44.33
2022-09-09T19:23:20.522Z,44.30
2022-09-09T19:25:48.241Z,45.08
2022-09-09T19:28:16.008Z,44.44
2022-09-09T19:30:47.706Z,44.54
2022-09-09T19:33:17.280Z,44.97
2022-09-09T19:35:45.016Z,44.93
2022-09-09T19:38:12.772Z,45.36
2022-09-09T19:40:40.791Z,44.65
2022-09-09T19:43:08.580Z,45.35
2022-09-09T19:45:36.305Z,45.13
2022-09-09T19:48:06.341Z,44.74
2022-09-09T19:50:38.311Z,44.94
2022-09-09T19:53:06.826Z,44.67
2022-09-09T19:55:35.395Z,44.97
2022-09-09T19:58:04.229Z,45.40
2022-09-09T20:00:33.062Z,45.50
2022-09-09T20:03:18.002Z,45.11
2022-09-09T20:05:49.472Z,45.65
2022-09-09T20:08:17.264Z,45.44
2022-09-09T20:10:52.855Z,44.85
2022-09-09T20:13:20.927Z,45.33
2022-09-09T20:15:48.673Z,44.95
2022-09-09T20:18:16.433Z,45.41
2022-09-09T20:20:44.849Z,45.51
2022-09-09T20:23:14.376Z,45.59
2022-09-09T20:25:42.104Z,45.56
2022-09-09T20:28:09.874Z,45.64
2022-09-09T20:30:38.298Z,45.60
2022-09-09T20:33:06.084Z,45.23
2022-09-09T20:35:36.529Z,45.03
2022-09-09T20:38:04.240Z,45.54
2022-09-09T20:40:34.222Z,45.52
2022-09-09T20:43:01.937Z,45.59
2022-09-09T20:45:29.696Z,45.49
2022-09-09T20:47:57.427Z,45.29
2022-09-09T20:50:25.598Z,45.57
2022-09-09T20:52:53.707Z,45.41
2022-09-09T20:55:21.566Z,44.85
2022-09-09T20:57:51.697Z,45.27
2022-09-09T21:00:19.499Z,44.75
2022-09-09T21:02:47.272Z,45.18
2022-09-09T21:05:15.368Z,44.64
2022-09-09T21:07:44.069Z,45.33
2022-09-09T21:10:12.072Z,45.54
2022-09-09T21:12:39.828Z,44.76
2022-09-09T21:15:14.412Z,45.04
2022-09-09T21:17:42.155Z,44.83
2022-09-09T21:20:10.756Z,45.34
2022-09-09T21:22:38.658Z,45.40
2022-09-09T21:25:07.866Z,44.98
2022-09-09T21:27:35.630Z,45.43
2022-09-09T21:30:04.284Z,44.93
2022-09-09T21:32:33.603Z,45.29
2022-09-09T21:35:01.333Z,45.29
2022-09-09T21:37:29.166Z,45.37
2022-09-09T21:39:56.931Z,45.35
2022-09-09T21:42:24.996Z,45.33
2022-09-09T21:44:53.004Z,45.35
2022-09-09T21:47:20.728Z,45.48
2022-09-09T21:49:49.883Z,45.54
2022-09-09T21:52:17.638Z,45.50
2022-09-09T21:54:45.918Z,45.42
2022-09-09T21:57:14.072Z,44.88
2022-09-09T21:59:42.199Z,45.37
2022-09-09T22:02:10.749Z,44.89
2022-09-09T22:04:40.162Z,44.88
2022-09-09T22:07:09.564Z,45.30
2022-09-09T22:09:37.678Z,44.74
2022-09-09T22:12:05.774Z,45.01
2022-09-09T22:14:33.522Z,45.32
2022-09-09T22:17:01.746Z,44.85
2022-09-09T22:19:29.475Z,45.39
2022-09-09T22:21:57.327Z,45.36
2022-09-09T22:24:27.633Z,45.10
2022-09-09T22:26:55.774Z,44.93
2022-09-09T22:29:23.607Z,45.04
2022-09-09T22:31:54.491Z,44.90
2022-09-09T22:34:22.524Z,45.58
2022-09-09T22:36:51.048Z,45.00
2022-09-09T22:39:18.856Z,45.17
2022-09-09T22:41:49.120Z,45.52
2022-09-09T22:44:17.130Z,45.17
2022-09-09T22:46:45.886Z,45.11
2022-09-09T22:49:13.677Z,44.85
2022-09-09T22:51:41.381Z,45.02
2022-09-09T22:54:09.393Z,44.94
2022-09-09T22:56:37.158Z,45.04
2022-09-09T22:59:06.314Z,44.77
2022-09-09T23:01:35.060Z,44.84
2022-09-09T23:04:03.396Z,44.72
2022-09-09T23:06:31.718Z,44.63
2022-09-09T23:09:00.454Z,45.23
2022-09-09T23:11:31.612Z,45.03
2022-09-09T23:14:00.624Z,45.25
2022-09-09T23:16:31.353Z,44.79
2022-09-09T23:19:00.895Z,44.73
2022-09-09T23:21:29.295Z,44.62
2022-09-09T23:23:58.219Z,44.71
2022-09-09T23:26:26.088Z,44.82
2022-09-09T23:28:58.299Z,45.18
2022-09-09T23:31:26.460Z,44.57
2022-09-09T23:33:55.853Z,45.10
2022-09-09T23:36:24.661Z,45.09
2022-09-09T23:38:54.493Z,45.14
2022-09-09T23:41:22.336Z,45.14
2022-09-09T23:43:50.365Z,45.08
2022-09-09T23:46:20.325Z,44.53
2022-09-09T23:48:51.627Z,45.24
2022-09-09T23:51:23.561Z,45.04
2022-09-09T23:53:52.346Z,44.49
2022-09-09T23:56:20.405Z,44.36
2022-09-09T23:58:48.734Z,45.21
